Time;durP1;ratioP1;P1;durP2;ratioP2;P2;SDS_P1;SDS_P2;PMS_P1;PMS_P2;Temp;Humidity;BMP_temperature;BMP_pressure;BME280_temperature;BME280_humidity;BME280_pressure;Samples;Min_cycle;Max_cycle;Signal;HPM_P1;HPM_P2
2022/09/06 00:00:05;;;;;;;8.80;4.43;;;;;;;;;;6187132;23;20048;-89
2022/09/06 00:02:44;;;;;;;7.80;4.05;;;;;;;;;;6187434;23;20017;-88
2022/09/06 00:05:26;;;;;;;3.85;3.55;;;;;;;;;;6187074;23;20040;-87
2022/09/06 00:11:12;;;;;;;7.80;3.85;;;;;;;;;;6153850;23;20045;-87
2022/09/06 00:13:53;;;;;;;6.85;4.20;;;;;;;;;;6130870;23;20025;-89
2022/09/06 00:16:22;;;;;;;6.60;3.80;;;;;;;;;;6155344;23;20054;-88
2022/09/06 00:18:48;;;;;;;10.23;4.53;;;;;;;;;;6250262;22;20020;-87
2022/09/06 00:21:22;;;;;;;4.13;3.72;;;;;;;;;;6226054;22;20020;-89
2022/09/06 00:27:04;;;;;;;7.70;3.83;;;;;;;;;;6279564;22;20001;-88
2022/09/06 00:29:31;;;;;;;5.72;3.80;;;;;;;;;;6223863;22;20067;-87
2022/09/06 00:32:07;;;;;;;6.20;4.05;;;;;;;;;;6200252;22;20054;-89
2022/09/06 00:34:51;;;;;;;7.03;4.00;;;;;;;;;;6224654;22;20075;-88
2022/09/06 00:37:20;;;;;;;5.47;4.47;;;;;;;;;;6224288;22;20499;-88
2022/09/06 00:39:49;;;;;;;9.38;4.10;;;;;;;;;;6197795;22;20020;-89
2022/09/06 00:42:16;;;;;;;9.90;4.35;;;;;;;;;;6248613;22;20092;-88
2022/09/06 00:44:42;;;;;;;8.82;4.50;;;;;;;;;;6248137;22;20079;-87
2022/09/06 00:47:16;;;;;;;10.07;4.30;;;;;;;;;;6222644;22;20059;-88
2022/09/06 00:49:53;;;;;;;4.80;4.20;;;;;;;;;;6222173;22;20383;-88
2022/09/06 00:52:34;;;;;;;5.13;4.13;;;;;;;;;;6276283;22;20020;-90
2022/09/06 00:55:00;;;;;;;6.30;4.25;;;;;;;;;;6223362;22;20051;-89
2022/09/06 00:57:30;;;;;;;9.10;4.28;;;;;;;;;;6221523;22;20617;-88
2022/09/06 01:00:08;;;;;;;5.50;4.10;;;;;;;;;;6225579;22;20015;-88
2022/09/06 01:02:49;;;;;;;7.35;4.40;;;;;;;;;;6225333;22;20395;-89
2022/09/06 01:05:16;;;;;;;11.35;4.40;;;;;;;;;;6251412;22;20081;-88
2022/09/06 01:07:57;;;;;;;6.13;4.53;;;;;;;;;;6226097;22;20027;-89
2022/09/06 01:10:42;;;;;;;7.55;4.72;;;;;;;;;;6223843;22;20031;-88
2022/09/06 01:13:38;;;;;;;5.55;4.85;;;;;;;;;;6248697;22;20016;-87
2022/09/06 01:16:12;;;;;;;9.40;4.60;;;;;;;;;;6252107;22;20031;-88
2022/09/06 01:18:38;;;;;;;9.10;4.65;;;;;;;;;;6225134;22;20396;-88
2022/09/06 01:21:23;;;;;;;8.23;4.85;;;;;;;;;;6226158;22;20094;-88
2022/09/06 01:23:55;;;;;;;5.68;4.70;;;;;;;;;;6248737;22;20016;-89
2022/09/06 01:26:46;;;;;;;7.88;5.15;;;;;;;;;;6222682;22;20511;-90
2022/09/06 01:29:31;;;;;;;8.60;4.97;;;;;;;;;;6249687;22;20027;-87
2022/09/06 01:32:15;;;;;;;9.20;4.80;;;;;;;;;;6222036;22;20126;-87
2022/09/06 01:34:44;;;;;;;8.77;5.38;;;;;;;;;;6225648;22;20562;-87
2022/09/06 01:37:15;;;;;;;9.90;4.80;;;;;;;;;;6249638;22;20051;-86
2022/09/06 01:39:41;;;;;;;5.65;4.90;;;;;;;;;;6224703;22;20074;-87
2022/09/06 01:42:12;;;;;;;11.32;5.00;;;;;;;;;;6224280;22;20063;-87
2022/09/06 01:44:48;;;;;;;8.65;4.85;;;;;;;;;;6248896;22;20024;-87
2022/09/06 01:47:45;;;;;;;8.30;5.03;;;;;;;;;;6224764;22;20027;-86
2022/09/06 01:50:27;;;;;;;12.35;5.43;;;;;;;;;;6155742;23;20021;-87
2022/09/06 01:52:56;;;;;;;6.45;4.90;;;;;;;;;;6183278;23;20050;-88
2022/09/06 01:55:22;;;;;;;10.02;5.10;;;;;;;;;;6245601;22;20072;-87
2022/09/06 01:58:07;;;;;;;11.60;5.88;;;;;;;;;;6276330;22;20386;-87
2022/09/06 02:00:36;;;;;;;8.15;5.20;;;;;;;;;;6225189;22;20093;-87
2022/09/06 02:03:18;;;;;;;8.70;5.25;;;;;;;;;;6247826;22;20017;-86
2022/09/06 02:05:44;;;;;;;9.25;5.28;;;;;;;;;;6224294;22;20019;-86
2022/09/06 02:08:24;;;;;;;10.35;4.85;;;;;;;;;;6276770;22;20019;-87
2022/09/06 02:11:05;;;;;;;12.23;5.55;;;;;;;;;;6222755;22;20016;-86
2022/09/06 02:13:58;;;;;;;8.27;5.63;;;;;;;;;;6225222;22;20024;-90
2022/09/06 02:16:37;;;;;;;10.80;5.38;;;;;;;;;;6223498;22;20019;-89
2022/09/06 02:19:10;;;;;;;8.52;5.50;;;;;;;;;;6223388;22;20508;-91
2022/09/06 02:21:41;;;;;;;8.35;6.18;;;;;;;;;;6224894;22;20011;-90
2022/09/06 02:24:08;;;;;;;8.75;5.85;;;;;;;;;;6225524;22;20471;-91
2022/09/06 02:27:13;;;;;;;11.20;6.22;;;;;;;;;;6249924;22;20464;-90
2022/09/06 02:29:42;;;;;;;9.98;5.75;;;;;;;;;;6157424;23;20049;-90
2022/09/06 02:32:37;;;;;;;11.05;5.80;;;;;;;;;;6181575;23;20024;-89
2022/09/06 02:35:19;;;;;;;15.73;6.35;;;;;;;;;;6185222;22;20143;-88
2022/09/06 02:37:45;;;;;;;6.65;5.93;;;;;;;;;;6224095;22;20019;-89
2022/09/06 02:40:26;;;;;;;8.35;6.50;;;;;;;;;;6225062;22;20078;-89
2022/09/06 02:43:08;;;;;;;8.75;6.38;;;;;;;;;;6224061;22;20015;-89
2022/09/06 02:45:49;;;;;;;7.75;5.82;;;;;;;;;;6249128;22;20023;-90
2022/09/06 02:51:19;;;;;;;8.57;6.47;;;;;;;;;;6251497;22;20035;-90
2022/09/06 02:53:45;;;;;;;7.80;6.95;;;;;;;;;;6225422;22;20027;-87
2022/09/06 02:56:11;;;;;;;8.40;6.53;;;;;;;;;;6202539;22;20019;-87
2022/09/06 02:58:53;;;;;;;12.15;6.80;;;;;;;;;;6225296;22;20019;-88
2022/09/06 03:01:21;;;;;;;11.05;6.65;;;;;;;;;;6250792;22;20080;-91
2022/09/06 03:04:11;;;;;;;9.40;7.03;;;;;;;;;;6229504;22;20019;-89
2022/09/06 03:06:44;;;;;;;7.70;7.00;;;;;;;;;;6225793;22;20073;-90
2022/09/06 03:12:08;;;;;;;10.27;6.90;;;;;;;;;;6231584;22;20026;-91
2022/09/06 03:14:34;;;;;;;8.02;6.45;;;;;;;;;;6226724;22;20020;-90
2022/09/06 03:17:03;;;;;;;7.85;6.30;;;;;;;;;;6226346;22;20445;-90
2022/09/06 03:19:54;;;;;;;11.23;6.50;;;;;;;;;;6198202;22;20028;-90
2022/09/06 03:22:20;;;;;;;10.30;6.80;;;;;;;;;;6227418;22;20039;-91
2022/09/06 03:24:47;;;;;;;8.98;6.85;;;;;;;;;;6248091;22;20023;-87
2022/09/06 03:27:13;;;;;;;7.97;6.68;;;;;;;;;;6274888;22;20054;-88
2022/09/06 03:29:39;;;;;;;7.10;6.45;;;;;;;;;;6222073;22;20016;-87
2022/09/06 03:32:05;;;;;;;9.00;6.47;;;;;;;;;;6199667;22;20016;-87
2022/09/06 03:34:31;;;;;;;13.18;7.15;;;;;;;;;;6222889;22;20399;-88
2022/09/06 03:36:58;;;;;;;10.93;6.57;;;;;;;;;;6197323;22;20026;-87
2022/09/06 03:39:24;;;;;;;8.35;6.90;;;;;;;;;;6276304;22;20459;-87
2022/09/06 03:41:50;;;;;;;13.65;7.20;;;;;;;;;;6221840;22;20019;-88
2022/09/06 03:44:16;;;;;;;12.80;6.97;;;;;;;;;;6224165;22;20563;-87
2022/09/06 03:46:54;;;;;;;13.25;7.78;;;;;;;;;;6197073;22;20138;-91
2022/09/06 03:49:20;;;;;;;8.02;7.22;;;;;;;;;;6226800;22;20023;-90
2022/09/06 03:52:02;;;;;;;14.98;7.95;;;;;;;;;;6247501;22;20069;-89
2022/09/06 03:54:39;;;;;;;12.90;7.45;;;;;;;;;;6250901;22;20022;-91
2022/09/06 03:57:09;;;;;;;10.95;7.05;;;;;;;;;;6222960;22;20089;-88
2022/09/06 03:59:35;;;;;;;10.80;8.07;;;;;;;;;;6224033;22;20047;-88
2022/09/06 04:02:02;;;;;;;9.77;6.93;;;;;;;;;;6249043;22;20019;-88
2022/09/06 04:04:28;;;;;;;8.68;7.25;;;;;;;;;;6224302;22;20015;-88
2022/09/06 04:07:13;;;;;;;9.40;7.65;;;;;;;;;;6249941;22;20015;-88
2022/09/06 04:09:39;;;;;;;10.52;7.13;;;;;;;;;;6221841;22;20043;-90
2022/09/06 04:12:05;;;;;;;10.80;8.05;;;;;;;;;;6225276;22;20361;-90
2022/09/06 04:14:47;;;;;;;11.38;7.85;;;;;;;;;;6249600;22;20012;-90
2022/09/06 04:17:19;;;;;;;12.50;7.32;;;;;;;;;;6248342;22;20027;-90
2022/09/06 04:19:45;;;;;;;7.68;6.88;;;;;;;;;;6223093;22;20016;-87
2022/09/06 04:22:23;;;;;;;9.57;7.55;;;;;;;;;;6222374;22;20047;-88
2022/09/06 04:24:49;;;;;;;10.88;7.90;;;;;;;;;;6219855;22;20027;-88
2022/09/06 04:27:28;;;;;;;11.10;7.88;;;;;;;;;;6197381;22;20020;-90
2022/09/06 04:30:09;;;;;;;9.55;7.75;;;;;;;;;;6222616;22;20023;-89
2022/09/06 04:32:53;;;;;;;10.35;7.90;;;;;;;;;;6252799;22;20020;-88
2022/09/06 04:35:34;;;;;;;15.48;7.95;;;;;;;;;;6280352;22;20024;-90
2022/09/06 04:38:01;;;;;;;10.15;7.57;;;;;;;;;;6227330;22;20023;-92
2022/09/06 04:40:27;;;;;;;8.93;8.02;;;;;;;;;;6252954;22;20012;-89
2022/09/06 04:43:08;;;;;;;9.27;8.05;;;;;;;;;;6225682;22;20023;-90
2022/09/06 04:45:49;;;;;;;8.35;7.63;;;;;;;;;;6252072;22;20026;-87
2022/09/06 04:48:25;;;;;;;8.68;7.80;;;;;;;;;;6201686;22;20028;-88
2022/09/06 04:51:03;;;;;;;9.23;7.90;;;;;;;;;;6274382;22;20024;-88
2022/09/06 04:53:29;;;;;;;9.52;7.40;;;;;;;;;;6251026;22;20492;-88
2022/09/06 04:56:30;;;;;;;8.85;7.38;;;;;;;;;;6198928;22;20399;-89
2022/09/06 04:59:15;;;;;;;12.85;7.65;;;;;;;;;;6226227;22;20031;-87
2022/09/06 05:01:54;;;;;;;10.00;7.47;;;;;;;;;;6249037;22;20019;-88
2022/09/06 05:04:20;;;;;;;10.07;7.82;;;;;;;;;;6225750;22;20030;-88
2022/09/06 05:07:17;;;;;;;8.68;7.80;;;;;;;;;;6247127;22;20155;-89
2022/09/06 05:09:43;;;;;;;14.20;7.95;;;;;;;;;;6227237;22;20115;-88
2022/09/06 05:15:40;;;;;;;;;;;;;;;;;;;;;
2022/09/06 05:18:10;;;;;;;10.13;7.70;;;;;;;;;;6275843;22;20045;-88
2022/09/06 05:20:52;;;;;;;10.38;7.75;;;;;;;;;;6246193;22;20790;-88
2022/09/06 05:23:30;;;;;;;12.98;7.72;;;;;;;;;;6250618;22;20030;-89
2022/09/06 05:26:07;;;;;;;;;;;;;;;;;;;;;
2022/09/06 05:28:54;;;;;;;9.77;7.53;;;;;;;;;;6231690;22;20015;-89
2022/09/06 05:31:38;;;;;;;11.05;7.90;;;;;;;;;;6228910;22;20023;-90
2022/09/06 05:34:20;;;;;;;10.35;7.60;;;;;;;;;;6229321;22;20027;-90
2022/09/06 05:37:02;;;;;;;10.15;8.32;;;;;;;;;;6278480;22;20019;-91
2022/09/06 05:39:47;;;;;;;9.40;8.15;;;;;;;;;;6226630;22;20483;-90
2022/09/06 05:42:25;;;;;;;15.75;8.90;;;;;;;;;;6250373;22;20020;-89
2022/09/06 05:45:06;;;;;;;13.18;9.43;;;;;;;;;;6224973;22;20020;-89
2022/09/06 05:47:34;;;;;;;11.18;10.00;;;;;;;;;;6223726;22;20020;-88
2022/09/06 05:53:53;;;;;;;11.07;9.98;;;;;;;;;;6182958;23;20028;-88
2022/09/06 05:56:21;;;;;;;10.38;9.43;;;;;;;;;;6131142;23;20163;-88
2022/09/06 05:59:03;;;;;;;10.48;9.48;;;;;;;;;;6217407;23;20523;-88
2022/09/06 06:01:58;;;;;;;11.43;9.65;;;;;;;;;;6194562;23;20020;-87
2022/09/06 06:04:24;;;;;;;10.23;8.85;;;;;;;;;;6242732;23;20020;-88
2022/09/06 06:07:24;;;;;;;9.80;8.90;;;;;;;;;;6191505;23;20110;-89
2022/09/06 06:09:50;;;;;;;12.35;8.82;;;;;;;;;;6216807;23;20120;-88
2022/09/06 06:12:16;;;;;;;12.70;9.18;;;;;;;;;;6212521;23;20338;-87
2022/09/06 06:14:42;;;;;;;10.65;8.48;;;;;;;;;;6194067;23;20106;-90
2022/09/06 06:19:57;;;;;;;10.80;9.00;;;;;;;;;;6217133;23;20095;-88
2022/09/06 06:22:57;;;;;;;10.25;9.25;;;;;;;;;;6243764;23;20487;-87
2022/09/06 06:25:25;;;;;;;15.00;9.48;;;;;;;;;;6192028;23;20028;-88
2022/09/06 06:27:51;;;;;;;10.65;9.60;;;;;;;;;;6194247;23;20488;-89
2022/09/06 06:30:24;;;;;;;13.07;9.43;;;;;;;;;;6213948;22;20019;-88
2022/09/06 06:32:53;;;;;;;11.68;9.18;;;;;;;;;;6247980;22;20020;-89
2022/09/06 06:35:25;;;;;;;12.93;9.82;;;;;;;;;;6249439;22;20020;-88
2022/09/06 06:37:52;;;;;;;10.57;9.35;;;;;;;;;;6277181;22;20019;-90
2022/09/06 06:40:33;;;;;;;14.95;9.85;;;;;;;;;;6249537;22;20415;-89
2022/09/06 06:43:11;;;;;;;10.60;9.65;;;;;;;;;;6250206;22;20152;-89
2022/09/06 06:45:37;;;;;;;12.13;10.10;;;;;;;;;;6250390;22;20023;-89
2022/09/06 06:48:16;;;;;;;14.90;10.90;;;;;;;;;;6250699;22;20019;-91
2022/09/06 06:50:57;;;;;;;13.07;10.35;;;;;;;;;;6253276;22;20081;-93
2022/09/06 06:56:45;;;;;;;15.63;11.40;;;;;;;;;;6281410;22;20045;-92
2022/09/06 06:59:25;;;;;;;13.73;9.95;;;;;;;;;;6252845;22;20019;-91
2022/09/06 07:01:57;;;;;;;19.05;11.02;;;;;;;;;;6252398;22;20067;-91
2022/09/06 07:04:32;;;;;;;11.60;10.50;;;;;;;;;;6217606;23;20048;-91
2022/09/06 07:07:10;;;;;;;13.80;10.50;;;;;;;;;;6186543;23;20318;-88
2022/09/06 07:09:42;;;;;;;12.30;9.40;;;;;;;;;;6211334;23;20485;-87
2022/09/06 07:12:08;;;;;;;11.88;9.63;;;;;;;;;;6187675;23;20476;-89
2022/09/06 07:14:35;;;;;;;10.60;9.35;;;;;;;;;;6189452;23;20104;-90
2022/09/06 07:17:38;;;;;;;14.98;9.75;;;;;;;;;;6196398;23;20488;-91
2022/09/06 07:20:10;;;;;;;12.70;9.70;;;;;;;;;;6191381;23;20102;-91
2022/09/06 07:22:37;;;;;;;11.25;10.15;;;;;;;;;;6190576;23;20024;-89
2022/09/06 07:25:07;;;;;;;11.30;9.90;;;;;;;;;;6214715;23;20039;-91
2022/09/06 07:27:38;;;;;;;13.90;10.73;;;;;;;;;;6191318;23;20114;-89
2022/09/06 07:30:05;;;;;;;16.00;10.00;;;;;;;;;;6189182;23;20020;-88
2022/09/06 07:32:33;;;;;;;12.05;10.68;;;;;;;;;;6215591;23;20102;-88
2022/09/06 07:35:04;;;;;;;16.98;10.13;;;;;;;;;;6203091;22;20086;-87
2022/09/06 07:37:33;;;;;;;11.45;10.38;;;;;;;;;;6224760;22;20051;-90
2022/09/06 07:39:59;;;;;;;11.60;10.40;;;;;;;;;;6225061;22;20352;-88
2022/09/06 07:42:38;;;;;;;12.15;10.85;;;;;;;;;;6223305;22;20039;-88
2022/09/06 07:45:19;;;;;;;14.93;10.60;;;;;;;;;;6247843;22;20031;-88
2022/09/06 07:47:55;;;;;;;12.10;10.60;;;;;;;;;;6221846;22;20019;-89
2022/09/06 07:50:21;;;;;;;11.80;10.70;;;;;;;;;;6220910;22;20519;-89
2022/09/06 07:53:11;;;;;;;12.18;10.88;;;;;;;;;;6223144;22;20020;-90
2022/09/06 07:56:14;;;;;;;12.10;10.82;;;;;;;;;;6222415;22;20019;-91
2022/09/06 07:58:56;;;;;;;13.45;10.88;;;;;;;;;;6254281;22;20037;-88
2022/09/06 08:01:31;;;;;;;12.13;10.93;;;;;;;;;;6254418;22;20016;-88
2022/09/06 08:04:15;;;;;;;13.07;11.75;;;;;;;;;;6228051;22;20050;-89
2022/09/06 08:06:41;;;;;;;;;;;;;;;;;;6261173;22;20012;-90
2022/09/06 08:09:11;;;;;;;12.00;10.88;;;;;;;;;;6230266;22;19949;-92
2022/09/06 08:11:37;;;;;;;12.27;10.93;;;;;;;;;;6230858;22;20024;-89
2022/09/06 08:14:15;;;;;;;14.63;11.00;;;;;;;;;;6254316;22;20020;-89
2022/09/06 08:17:05;;;;;;;13.25;10.43;;;;;;;;;;6189325;23;20031;-88
2022/09/06 08:19:31;;;;;;;12.02;10.50;;;;;;;;;;6191435;23;20092;-89
2022/09/06 08:22:06;;;;;;;13.25;10.23;;;;;;;;;;6190436;23;20016;-91
2022/09/06 08:24:40;;;;;;;10.88;9.82;;;;;;;;;;6188441;23;20491;-88
2022/09/06 08:27:06;;;;;;;11.38;10.38;;;;;;;;;;6189377;23;20473;-90
2022/09/06 08:32:35;;;;;;;12.18;10.43;;;;;;;;;;6155949;23;20072;-90
2022/09/06 08:35:16;;;;;;;12.25;10.52;;;;;;;;;;6188405;23;20024;-89
2022/09/06 08:37:45;;;;;;;12.77;10.23;;;;;;;;;;6214141;23;20172;-87
2022/09/06 08:40:38;;;;;;;12.10;10.88;;;;;;;;;;6214057;23;20013;-91
2022/09/06 08:43:04;;;;;;;13.05;9.85;;;;;;;;;;6191420;23;20048;-90
2022/09/06 08:48:24;;;;;;;12.02;10.43;;;;;;;;;;6261575;22;20019;-89
2022/09/06 08:51:06;;;;;;;11.50;9.95;;;;;;;;;;6227008;22;20058;-91
2022/09/06 08:53:35;;;;;;;14.50;9.73;;;;;;;;;;6253488;22;20024;-88
2022/09/06 08:56:20;;;;;;;;;;;;;;;;;;;;;
2022/09/06 08:59:06;;;;;;;15.32;9.60;;;;;;;;;;6282128;22;20020;-90
2022/09/06 09:01:38;;;;;;;11.02;10.02;;;;;;;;;;6229641;22;20023;-90
2022/09/06 09:04:20;;;;;;;11.02;9.85;;;;;;;;;;6253923;22;20019;-89
2022/09/06 09:07:02;;;;;;;14.50;10.27;;;;;;;;;;6252886;22;20535;-89
2022/09/06 09:09:45;;;;;;;12.55;10.50;;;;;;;;;;6227565;22;20020;-90
2022/09/06 09:12:30;;;;;;;15.43;9.73;;;;;;;;;;6251907;22;20016;-89
2022/09/06 09:15:12;;;;;;;10.65;9.57;;;;;;;;;;6254921;22;20020;-90
2022/09/06 09:17:52;;;;;;;10.82;9.73;;;;;;;;;;6253597;22;20027;-88
2022/09/06 09:20:34;;;;;;;11.68;10.13;;;;;;;;;;6255985;22;20020;-90
2022/09/06 09:26:20;;;;;;;17.63;9.80;;;;;;;;;;6255978;22;20030;-94
2022/09/06 09:29:05;;;;;;;12.15;9.68;;;;;;;;;;6133875;23;20129;-92
2022/09/06 09:31:36;;;;;;;10.63;9.57;;;;;;;;;;6140556;23;20390;-93
2022/09/06 09:34:03;;;;;;;11.95;10.18;;;;;;;;;;6277469;22;20019;-90
2022/09/06 09:37:08;;;;;;;11.98;9.95;;;20.90;99.90;;;;;;6231178;22;20016;-91
2022/09/06 09:42:51;;;;;;;12.97;9.93;;;;;;;;;;6281274;22;20020;-93
2022/09/06 09:45:34;;;;;;;10.77;9.68;;;;;;;;;;6255061;22;20274;-94
2022/09/06 09:48:15;;;;;;;10.80;9.80;;;;;;;;;;6229761;22;20019;-94
2022/09/06 09:50:42;;;;;;;15.63;9.23;;;;;;;;;;6282531;22;20056;-91
2022/09/06 09:53:37;;;;;;;11.25;10.15;;;;;;;;;;6229924;22;20031;-94
2022/09/06 09:56:03;;;;;;;12.07;9.05;;;;;;;;;;6228549;22;20097;-91
2022/09/06 09:58:45;;;;;;;13.63;9.88;;;;;;;;;;6280413;22;20071;-90
2022/09/06 10:01:47;;;;;;;11.18;9.55;;;;;;;;;;6253206;22;20015;-86
2022/09/06 10:08:10;;;;;;;16.92;9.00;;;;;;;;;;6282539;22;20069;-92
2022/09/06 10:11:14;;;;;;;10.15;8.45;;;;;;;;;;6254591;22;20027;-95
2022/09/06 10:14:09;;;;;;;13.20;8.68;;;;;;;;;;6255058;22;20050;-92
2022/09/06 10:20:21;;;;;;;10.10;8.55;;;;;;;;;;6204420;22;20027;-88
2022/09/06 10:22:54;;;;;;;13.57;8.48;;;;;;;;;;6257244;22;20115;-92
2022/09/06 10:25:22;;;;;;;;;;;;;;;;;;6233085;22;20020;-86
2022/09/06 10:28:08;;;;;;;9.38;8.27;;;;;;;;;;6286213;22;19938;-87
2022/09/06 10:31:08;;;;;;;9.35;8.40;;;;;;;;;;6259764;22;20019;-92
2022/09/06 10:34:11;;;;;;;16.23;8.65;;;;;;;;;;6262255;22;20020;-94
2022/09/06 10:40:16;;;;;;;10.15;7.75;;;;;;;;;;6288473;22;20027;-93
2022/09/06 10:43:00;;;;;;;11.25;8.45;;;;;;;;;;6257289;22;20027;-85
2022/09/06 10:46:00;;;;;;;13.73;8.52;;;;;;;;;;6260154;22;20039;-87
2022/09/06 10:48:44;;;;;;;10.35;8.35;;;;;;;;;;6286112;22;20020;-87
2022/09/06 10:51:20;;;;;;;11.25;8.77;;;;;;;;;;6233371;22;20031;-92
2022/09/06 10:53:55;;;;;;;14.80;8.88;;;;;;;;;;6286798;22;20019;-92
2022/09/06 10:56:46;;;;;;;15.98;8.75;;;;;;;;;;6286733;22;20071;-95
2022/09/06 10:59:31;;;;;;;13.18;8.70;;;;;;;;;;6234586;22;20045;-91
2022/09/06 11:02:31;;;;;;;13.38;8.88;;;;;;;;;;6260764;22;20020;-91
2022/09/06 11:05:19;;;;;;;9.57;8.07;;;;;;;;;;6262267;22;20081;-92
2022/09/06 11:11:35;;;;;;;18.10;8.97;;;;;;;;;;6197673;23;20020;-91
2022/09/06 11:17:23;;;;;;;9.88;8.13;;;;;;;;;;6225046;23;20093;-94
2022/09/06 11:20:07;;;;;;;10.15;8.13;;;;;;;;;;6225382;23;20021;-93
2022/09/06 11:23:08;;;;;;;11.60;8.77;;;;;;;;;;6198228;23;20020;-90
2022/09/06 11:25:48;;;;;;;13.88;8.55;;;;;;;;;;6129278;23;20025;-93
2022/09/06 11:28:31;;;;;;;12.50;8.07;;;;;;;;;;6200506;23;20016;-92
2022/09/06 11:34:36;;;;;;;13.38;8.52;;;;;;;;;;6167298;23;20064;-94
2022/09/06 11:37:23;;;;;;;15.38;8.70;;;;;;;;;;6113551;23;20032;-94
2022/09/06 11:40:24;;;;;;;9.77;8.80;;;;;;;;;;6198080;23;20031;-95
2022/09/06 11:43:24;;;;;;;11.73;8.95;;;;;;;;;;6222214;23;20029;-95
2022/09/06 11:49:12;;;;;;;12.03;9.57;;;;;;;;;;6224452;23;20029;-92
2022/09/06 11:51:50;;;;;;;11.18;7.93;;;;;;;;;;6200831;23;20255;-89
2022/09/06 11:54:53;;;;;;;11.45;8.35;;;;;;;;;;6144490;23;20025;-92
2022/09/06 11:57:54;;;;;;;15.52;8.02;;;;;;;;;;6173830;23;20021;-95
2022/09/06 12:00:36;;;;;;;9.45;8.00;;;;;;;;;;6167813;23;20139;-93
2022/09/06 12:03:18;;;;;;;11.73;8.80;;;;;;;;;;6171404;23;20097;-92
2022/09/06 12:06:17;;;;;;;10.20;8.40;;;25.80;99.90;;;;;;6203337;23;20017;-93
2022/09/06 12:08:45;;;;;;;15.30;9.23;;;;;;;;;;6206278;23;20027;-95
2022/09/06 12:11:47;;;;;;;11.80;9.10;;;;;;;;;;6209743;23;20050;-93
2022/09/06 12:14:31;;;;;;;11.15;9.20;;;;;;;;;;6207909;23;20016;-95
2022/09/06 12:17:03;;;;;;;14.02;9.10;;;;;;;;;;6258118;23;20079;-95
2022/09/06 12:19:53;;;;;;;13.68;9.15;;;;;;;;;;6257015;23;20515;-86
2022/09/06 12:22:52;;;;;;;9.50;8.50;;;;;;;;;;6208551;23;20044;-91
2022/09/06 12:25:39;;;;;;;9.73;8.73;;;;;;;;;;6227066;23;20030;-91
2022/09/06 12:28:09;;;;;;;11.82;8.18;;;;;;;;;;6230504;23;20055;-90
2022/09/06 12:30:43;;;;;;;19.40;8.45;;;;;;;;;;6257298;23;20084;-93
2022/09/06 12:33:43;;;;;;;10.20;8.88;;;;;;;;;;6230751;23;20020;-93
2022/09/06 12:36:46;;;;;;;10.65;8.68;;;;;;;;;;6254330;23;20028;-93
2022/09/06 12:39:27;;;;;;;10.93;9.15;;;;;;;;;;6229035;23;20020;-89
2022/09/06 12:41:59;;;;;;;10.52;9.38;;;;;;;;;;6250892;23;20023;-89
2022/09/06 12:44:31;;;;;;;12.02;8.73;;;;;;;;;;6257299;23;20065;-88
2022/09/06 12:47:06;;;;;;;13.35;8.82;;;;;;;;;;6224447;23;20013;-87
2022/09/06 12:49:36;;;;;;;12.02;8.63;;;;;;;;;;6256976;23;20024;-87
2022/09/06 12:52:19;;;;;;;15.40;8.88;;;;;;;;;;6204906;22;20047;-92
2022/09/06 12:55:20;;;;;;;11.38;8.80;;;;;;;;;;6259066;22;20047;-93
2022/09/06 12:58:21;;;;;;;11.10;8.55;;;;;;;;;;6261934;22;20019;-87
2022/09/06 13:00:50;;;;;;;11.68;8.82;;;;;;;;;;6235251;22;20085;-90
2022/09/06 13:03:48;;;;;;;9.98;8.75;;;;;;;;;;6237836;22;20035;-93
2022/09/06 13:06:30;;;;;;;12.13;8.32;;;;;;;;;;6289149;22;20132;-88
2022/09/06 13:09:12;;;;;;;10.07;8.73;;;;;;;;;;6239951;22;20381;-88
2022/09/06 13:12:12;;;;;;;10.57;9.00;;;;;;;;;;6234686;22;20050;-95
2022/09/06 13:14:57;;;;;;;11.00;8.20;;;;;;;;;;6263177;22;20022;-93
2022/09/06 13:52:55;;;;;;;14.43;7.85;;;28.40;99.90;;;;;;6284448;22;20074;31
2022/09/06 14:49:36;;;;;;;13.20;7.72;;;;;;;;;;6287687;22;20035;-89
2022/09/06 15:01:35;;;;;;;11.38;7.40;;;;;;;;;;6329156;22;20057;-88
2022/09/06 15:04:05;;;;;;;11.98;7.85;;;;;;;;;;6290894;22;20054;-89
2022/09/06 15:27:48;;;;;;;13.90;7.45;;;;;;;;;;6266406;22;20019;-85
2022/09/06 15:49:44;;;;;;;13.63;6.70;;;;;;;;;;6293235;22;20039;-87
2022/09/06 16:26:14;;;;;;;8.82;7.15;;;;;;;;;;6292286;22;20024;-90
2022/09/06 16:39:17;;;;;;;12.48;7.18;;;;;;;;;;6255225;22;20031;-92
2022/09/06 16:41:44;;;;;;;21.40;8.93;;;;;;;;;;6248457;22;20073;-91
2022/09/06 19:30:10;;;;;;;10.98;7.45;;;;;;;;;;6273291;22;20075;-93
